Time;durP1;ratioP1;P1;durP2;ratioP2;P2;SDS_P1;SDS_P2;PMS_P1;PMS_P2;Temp;Humidity;BMP_temperature;BMP_pressure;BME280_temperature;BME280_humidity;BME280_pressure;Samples;Min_cycle;Max_cycle;Signal;HPM_P1;HPM_P2
2022/04/15 00:00:39;;;;;;;10.30;6.45;;;12.30;99.90;;;12.53;84.11;101725.44;5245362;28;20501;-68
2022/04/15 00:03:11;;;;;;;11.55;6.97;;;12.30;99.90;;;12.48;84.04;101721.72;5245331;28;20143;-67
2022/04/15 00:05:45;;;;;;;11.23;6.45;;;12.30;99.90;;;12.46;84.27;101723.41;5244532;28;20045;-67
2022/04/15 00:08:17;;;;;;;10.77;6.50;;;12.30;99.90;;;12.41;84.19;101724.91;5245460;28;20048;-69
2022/04/15 00:10:49;;;;;;;11.38;6.55;;;12.20;99.90;;;12.38;84.43;101730.00;5245395;28;20049;-67
2022/04/15 00:13:24;;;;;;;10.80;6.60;;;12.20;99.90;;;12.34;84.36;101730.72;5245852;28;20049;-69
2022/04/15 00:15:56;;;;;;;12.65;6.55;;;12.20;99.90;;;12.30;84.53;101732.28;5248993;28;20107;-68
2022/04/15 00:18:28;;;;;;;14.20;6.10;;;12.20;99.90;;;12.26;84.60;101725.16;5249224;28;20507;-68
2022/04/15 00:21:01;;;;;;;10.80;6.25;;;12.10;99.90;;;12.23;84.55;101725.91;5248965;28;20071;-67
2022/04/15 00:23:34;;;;;;;11.85;6.40;;;12.10;99.90;;;12.20;84.38;101723.19;5248868;28;20139;-69
2022/04/15 00:26:07;;;;;;;14.27;6.82;;;12.00;99.90;;;12.16;84.63;101730.81;5248790;28;20060;-68
2022/04/15 00:28:40;;;;;;;13.00;6.45;;;12.00;99.90;;;12.12;84.57;101735.00;5249305;28;20413;-69
2022/04/15 00:31:12;;;;;;;9.80;6.30;;;12.00;99.90;;;12.10;84.82;101728.81;5248749;28;20493;-68
2022/04/15 00:33:44;;;;;;;12.25;6.55;;;11.90;99.90;;;12.09;85.38;101737.50;5248392;28;20082;-68
2022/04/15 00:36:16;;;;;;;11.43;6.53;;;11.90;99.90;;;12.15;85.43;101731.66;5248731;28;20053;-67
2022/04/15 00:38:48;;;;;;;11.07;6.18;;;11.90;99.90;;;12.19;85.40;101733.53;5248698;28;20044;-67
2022/04/15 00:41:20;;;;;;;13.05;6.38;;;12.00;99.90;;;12.19;84.84;101744.00;5248599;28;20052;-69
2022/04/15 00:43:58;;;;;;;11.02;5.68;;;12.00;99.90;;;12.15;84.51;101744.72;5248349;28;20049;-67
2022/04/15 00:46:30;;;;;;;10.98;5.93;;;11.90;99.90;;;12.08;84.65;101742.66;5248566;28;20048;-68
2022/04/15 00:49:02;;;;;;;11.70;6.53;;;11.90;99.90;;;12.02;84.29;101743.28;5248154;28;20052;-68
2022/04/15 00:51:36;;;;;;;9.68;6.10;;;11.90;99.90;;;11.97;84.69;101742.19;5248359;28;20048;-67
2022/04/15 00:54:11;;;;;;;11.50;5.88;;;11.80;99.90;;;11.93;84.80;101748.09;5248192;28;20053;-68
2022/04/15 00:56:45;;;;;;;12.07;6.25;;;11.80;99.90;;;11.90;84.66;101745.34;5249011;28;20044;-67
2022/04/15 00:59:21;;;;;;;9.93;5.53;;;11.70;99.90;;;11.84;84.96;101751.19;5248514;28;20056;-67
2022/04/15 01:01:53;;;;;;;9.85;5.97;;;11.70;99.90;;;11.80;84.91;101748.34;5247925;28;20071;-70
2022/04/15 01:04:26;;;;;;;9.43;5.88;;;11.60;99.90;;;11.73;84.71;101754.13;5248225;28;20067;-69
2022/04/15 01:07:00;;;;;;;10.07;6.20;;;11.60;99.90;;;11.67;85.03;101747.81;5248175;28;20424;-69
2022/04/15 01:09:33;;;;;;;9.52;5.70;;;11.50;99.90;;;11.62;85.01;101754.53;5247703;28;20049;-68
2022/04/15 01:12:09;;;;;;;10.23;6.10;;;11.50;99.90;;;11.58;85.30;101755.22;5248014;28;20473;-67
2022/04/15 01:14:44;;;;;;;10.23;6.22;;;11.50;99.90;;;11.53;85.25;101756.69;5248148;28;20084;-68
2022/04/15 01:17:16;;;;;;;9.95;5.97;;;11.40;99.90;;;11.50;85.14;101753.97;5247984;28;20503;-69
2022/04/15 01:19:48;;;;;;;10.93;5.60;;;11.40;99.90;;;11.46;85.30;101758.97;5247719;28;20489;-68
2022/04/15 01:22:25;;;;;;;11.55;6.38;;;11.40;99.90;;;11.40;85.28;101762.19;5247402;28;20052;-66
2022/04/15 01:24:58;;;;;;;11.52;6.30;;;11.30;99.90;;;11.37;85.18;101767.28;5247224;28;20048;-67
2022/04/15 01:27:34;;;;;;;10.32;6.00;;;11.30;99.90;;;11.32;85.30;101759.22;5247776;28;20055;-68
2022/04/15 01:30:11;;;;;;;11.73;6.07;;;11.20;99.90;;;11.30;85.45;101770.41;5247829;28;20489;-68
2022/04/15 01:32:44;;;;;;;9.80;5.85;;;11.20;99.90;;;11.27;85.46;101770.25;5247094;28;20054;-68
2022/04/15 01:35:18;;;;;;;10.90;5.85;;;11.20;99.90;;;11.24;85.64;101765.81;5247533;28;20056;-69
2022/04/15 01:37:51;;;;;;;10.88;5.72;;;11.10;99.90;;;11.22;85.64;101772.69;5247518;28;20140;-67
2022/04/15 01:40:24;;;;;;;9.02;5.93;;;11.10;99.90;;;11.19;85.85;101769.00;5247079;28;20048;-68
2022/04/15 01:42:56;;;;;;;11.50;6.32;;;11.10;99.90;;;11.15;85.65;101762.78;5246832;28;20044;-68
2022/04/15 01:45:28;;;;;;;10.23;5.97;;;11.10;99.90;;;11.13;85.84;101767.00;5246853;28;20058;-67
2022/04/15 01:48:00;;;;;;;9.38;6.05;;;11.00;99.90;;;11.09;85.79;101768.59;5247545;28;20048;-69
2022/04/15 01:50:32;;;;;;;12.23;5.90;;;11.00;99.90;;;11.07;85.84;101766.69;5247199;28;20052;-68
2022/04/15 01:53:04;;;;;;;10.45;5.85;;;11.00;99.90;;;11.02;85.86;101766.50;5247328;28;20053;-68
2022/04/15 01:55:37;;;;;;;14.05;6.40;;;10.90;99.90;;;11.00;85.85;101764.63;5247216;28;20392;-68
2022/04/15 01:58:09;;;;;;;10.98;6.25;;;10.90;99.90;;;10.96;86.05;101763.59;5247141;28;20530;-67
2022/04/15 02:00:41;;;;;;;11.43;6.03;;;10.90;99.90;;;10.95;85.91;101766.09;5246926;28;20079;-69
2022/04/15 02:03:13;;;;;;;10.18;6.22;;;10.90;99.90;;;10.91;86.03;101767.69;5246936;28;20476;-67
2022/04/15 02:05:45;;;;;;;12.32;6.20;;;10.80;99.90;;;10.87;86.13;101779.66;5246700;28;20056;-69
2022/04/15 02:08:17;;;;;;;12.35;6.07;;;10.80;99.90;;;10.84;86.16;101776.03;5246574;28;20059;-67
2022/04/15 02:10:50;;;;;;;10.05;5.72;;;10.80;99.90;;;10.78;86.00;101774.00;5246735;28;20490;-69
2022/04/15 02:13:22;;;;;;;9.50;6.07;;;10.70;99.90;;;10.73;85.92;101782.44;5246365;28;20049;-67
2022/04/15 02:15:54;;;;;;;8.32;5.80;;;10.60;99.90;;;10.68;86.10;101784.78;5246690;28;20071;-68
2022/04/15 02:18:26;;;;;;;11.73;6.10;;;10.60;99.90;;;10.66;86.06;101782.94;5246722;28;20045;-67
2022/04/15 02:20:58;;;;;;;11.13;5.90;;;10.60;99.90;;;10.62;86.11;101797.53;5246708;28;20066;-68
2022/04/15 02:23:30;;;;;;;11.30;5.65;;;10.60;99.90;;;10.59;86.21;101787.84;5246562;28;20382;-69
2022/04/15 02:26:03;;;;;;;10.20;5.85;;;10.50;99.90;;;10.56;86.25;101792.91;5246502;28;20052;-68
2022/04/15 02:28:35;;;;;;;11.55;6.55;;;10.50;99.90;;;10.52;86.19;101788.34;5246556;28;20045;-68
2022/04/15 02:31:07;;;;;;;10.77;6.60;;;10.50;99.90;;;10.52;86.18;101793.56;5246404;28;20048;-68
2022/04/15 02:33:39;;;;;;;11.48;6.25;;;10.50;99.90;;;10.50;86.25;101797.81;5245923;28;20048;-68
2022/04/15 02:36:11;;;;;;;10.38;5.65;;;10.40;99.90;;;10.47;86.19;101799.38;5246343;28;20045;-67
2022/04/15 02:38:44;;;;;;;11.93;6.05;;;10.40;99.90;;;10.44;86.40;101797.50;5246630;28;20062;-68
2022/04/15 02:41:18;;;;;;;11.18;5.85;;;10.40;99.90;;;10.41;86.25;101801.66;5246146;28;20044;-68
2022/04/15 02:43:50;;;;;;;11.30;6.40;;;10.40;99.90;;;10.37;86.37;101799.69;5246048;28;20051;-69
2022/04/15 02:46:22;;;;;;;11.88;6.63;;;10.30;99.90;;;10.35;86.43;101801.34;5246836;28;20477;-68
2022/04/15 02:48:54;;;;;;;12.80;6.00;;;10.30;99.90;;;10.33;86.68;101803.88;5247131;28;20401;-68
2022/04/15 02:51:26;;;;;;;10.30;6.50;;;10.30;99.90;;;10.32;86.78;101799.47;5246944;28;20067;-67
2022/04/15 02:53:58;;;;;;;12.63;6.38;;;10.20;99.90;;;10.31;86.98;101800.31;5246674;28;20075;-69
2022/04/15 02:56:31;;;;;;;10.18;6.35;;;10.20;99.90;;;10.30;87.23;101799.41;5246576;28;20489;-67
2022/04/15 02:59:03;;;;;;;12.32;7.32;;;10.20;99.90;;;10.29;87.18;101794.09;5247193;28;20622;-67
2022/04/15 03:01:35;;;;;;;13.30;6.75;;;10.20;99.90;;;10.27;87.11;101806.16;5246717;28;20056;-67
2022/04/15 03:04:07;;;;;;;12.13;7.18;;;10.20;99.90;;;10.24;87.11;101799.09;5246619;28;20049;-71
2022/04/15 03:06:39;;;;;;;12.00;6.50;;;10.20;99.90;;;10.22;87.11;101802.38;5246345;28;20049;-69
2022/04/15 03:09:12;;;;;;;11.18;6.90;;;10.20;99.90;;;10.19;87.15;101797.91;5246512;28;20048;-69
2022/04/15 03:11:45;;;;;;;12.30;6.95;;;10.10;99.90;;;10.17;87.13;101802.16;5246293;28;20045;-69
2022/04/15 03:14:17;;;;;;;12.32;7.40;;;10.10;99.90;;;10.14;87.21;101801.09;5246925;28;20071;-67
2022/04/15 03:16:49;;;;;;;13.20;7.28;;;10.10;99.90;;;10.12;87.25;101807.94;5246338;28;20055;-67
2022/04/15 03:19:21;;;;;;;13.35;6.72;;;10.10;99.90;;;10.09;87.24;101802.56;5246823;28;20386;-68
2022/04/15 03:21:53;;;;;;;13.48;7.05;;;10.00;99.90;;;10.06;87.10;101800.69;5246086;28;20055;-67
2022/04/15 03:24:26;;;;;;;11.40;7.00;;;10.00;99.90;;;10.05;87.11;101801.50;5246705;28;20049;-67
2022/04/15 03:26:59;;;;;;;14.93;7.60;;;10.00;99.90;;;10.02;87.20;101807.44;5246100;28;20055;-67
2022/04/15 03:29:31;;;;;;;12.80;7.15;;;10.00;99.90;;;9.99;87.29;101807.28;5246238;28;20051;-69
2022/04/15 03:32:04;;;;;;;14.60;7.22;;;9.90;99.90;;;9.96;87.27;101812.31;5246276;28;20056;-68
2022/04/15 03:34:36;;;;;;;12.02;6.95;;;9.90;99.90;;;9.92;87.30;101807.78;5246741;28;20055;-69
2022/04/15 03:37:08;;;;;;;11.20;6.50;;;9.90;99.90;;;9.90;87.25;101806.78;5246627;28;20143;-68
2022/04/15 03:39:40;;;;;;;11.88;6.93;;;9.90;99.90;;;9.86;87.29;101810.06;5246352;28;20044;-68
2022/04/15 03:42:13;;;;;;;11.80;6.95;;;9.80;99.90;;;9.84;87.38;101816.88;5245861;28;20051;-69
2022/04/15 03:44:46;;;;;;;11.32;6.72;;;9.80;99.90;;;9.82;87.34;101817.59;5246429;28;20051;-69
2022/04/15 03:47:18;;;;;;;11.00;6.25;;;9.80;99.90;;;9.78;87.44;101821.78;5246121;28;20044;-68
2022/04/15 03:49:49;;;;;;;12.80;7.15;;;9.70;99.90;;;9.75;87.41;101818.97;5249891;28;20058;-68
2022/04/15 03:52:21;;;;;;;11.00;6.47;;;9.70;99.90;;;9.72;87.58;101811.91;5249691;28;20051;-68
2022/04/15 03:54:53;;;;;;;11.77;6.75;;;9.70;99.90;;;9.71;87.67;101811.81;5250384;28;20049;-67
2022/04/15 03:57:27;;;;;;;13.63;7.13;;;9.70;99.90;;;9.68;87.47;101819.47;5249970;28;20049;-68
2022/04/15 03:59:59;;;;;;;11.30;6.57;;;9.70;99.90;;;9.66;87.66;101813.28;5250052;28;20145;-67
2022/04/15 04:02:31;;;;;;;12.52;7.03;;;9.60;99.90;;;9.63;87.45;101815.72;5249728;28;20080;-68
2022/04/15 04:05:04;;;;;;;13.82;6.85;;;9.60;99.90;;;9.62;87.60;101824.34;5311240;22;20043;-75
2022/04/15 04:07:36;;;;;;;10.48;6.30;;;9.60;99.90;;;9.61;87.58;101828.66;5224901;28;20489;-75
2022/04/15 04:10:13;;;;;;;14.73;7.07;;;9.60;99.90;;;9.58;87.53;101822.38;5231633;28;20049;-76
2022/04/15 04:12:48;;;;;;;11.55;6.78;;;9.50;99.90;;;9.55;87.31;101822.22;5231747;28;20745;-75
2022/04/15 04:15:20;;;;;;;11.38;6.63;;;9.50;99.90;;;9.52;87.65;101822.94;5231890;28;20057;-75
2022/04/15 04:17:52;;;;;;;12.07;6.35;;;9.50;99.90;;;9.50;87.47;101819.34;5231450;28;20053;-75
2022/04/15 04:20:24;;;;;;;13.73;6.90;;;9.40;99.90;;;9.47;87.41;101819.19;5231600;28;20140;-75
2022/04/15 04:22:56;;;;;;;12.20;6.80;;;9.40;99.90;;;9.44;87.38;101830.31;5230844;28;20049;-77
2022/04/15 04:25:28;;;;;;;14.18;6.97;;;9.40;99.90;;;9.41;87.44;101819.75;5231320;28;20063;-76
2022/04/15 04:28:01;;;;;;;13.65;7.45;;;9.40;99.90;;;9.41;87.53;101819.75;5231140;28;20137;-75
2022/04/15 04:30:33;;;;;;;13.05;7.53;;;9.40;99.90;;;9.40;87.36;101828.38;5231325;28;20053;-77
2022/04/15 04:33:06;;;;;;;13.00;7.25;;;9.40;99.90;;;9.37;87.43;101828.19;5231517;28;20055;-75
2022/04/15 04:35:38;;;;;;;14.10;6.93;;;9.30;99.90;;;9.35;87.44;101827.22;5231930;28;20071;-76
2022/04/15 04:38:10;;;;;;;13.77;7.35;;;9.30;99.90;;;9.33;87.10;101826.22;5231727;28;20049;-76
2022/04/15 04:40:43;;;;;;;12.02;6.65;;;9.30;99.90;;;9.31;87.34;101826.94;5231142;28;20045;-75
2022/04/15 04:43:17;;;;;;;11.65;6.85;;;9.30;99.90;;;9.30;87.18;101831.25;5230178;28;20055;-77
2022/04/15 04:45:49;;;;;;;16.10;7.75;;;9.30;99.90;;;9.30;87.56;101832.97;5230955;28;20049;-76
2022/04/15 04:48:21;;;;;;;13.65;7.22;;;9.30;99.90;;;9.29;87.37;101844.19;5231080;28;20057;-76
2022/04/15 04:50:54;;;;;;;14.85;7.10;;;9.30;99.90;;;9.29;87.43;101847.69;5230955;28;20053;-76
2022/04/15 04:53:26;;;;;;;10.73;6.80;;;9.30;99.90;;;9.27;87.45;101845.81;5230642;28;20045;-76
2022/04/15 04:55:58;;;;;;;12.80;7.20;;;9.30;99.90;;;9.29;87.83;101849.38;5230909;28;20076;-77
2022/04/15 04:58:31;;;;;;;12.30;7.55;;;9.30;99.90;;;9.29;87.43;101855.47;5230400;28;20057;-75
2022/04/15 05:01:03;;;;;;;12.25;6.70;;;9.30;99.90;;;9.30;87.72;101862.47;5229388;28;20059;-75
2022/04/15 05:03:35;;;;;;;15.57;7.45;;;9.30;99.90;;;9.33;87.60;101859.16;5229209;28;20465;-75
2022/04/15 05:06:07;;;;;;;14.70;7.22;;;9.30;99.90;;;9.34;87.97;101864.44;5230386;28;20041;-76
2022/04/15 05:08:39;;;;;;;11.82;6.68;;;9.30;99.90;;;9.46;88.00;101870.34;5230093;28;20056;-76
2022/04/15 05:11:11;;;;;;;13.93;7.57;;;9.40;99.90;;;9.58;88.20;101864.00;5230493;28;20049;-77
2022/04/15 05:13:44;;;;;;;14.23;7.90;;;9.50;99.90;;;9.69;88.09;101868.13;5229878;28;20045;-75
2022/04/15 05:16:17;;;;;;;12.13;7.22;;;9.60;99.90;;;9.75;87.66;101876.28;5230074;28;20049;-76
2022/04/15 05:18:49;;;;;;;12.38;7.28;;;9.70;99.90;;;9.84;87.80;101868.06;5230090;28;20131;-75
2022/04/15 05:21:21;;;;;;;15.82;8.45;;;9.70;99.90;;;9.91;87.86;101875.41;5229549;28;20056;-76
2022/04/15 05:23:53;;;;;;;12.25;7.40;;;9.80;99.90;;;9.99;87.95;101885.44;5229316;28;20141;-76
2022/04/15 05:26:25;;;;;;;12.27;7.55;;;9.90;99.90;;;10.07;87.76;101885.84;5229501;28;20049;-75
2022/04/15 05:28:58;;;;;;;13.20;7.90;;;10.00;99.90;;;10.22;87.72;101878.84;5229834;28;20045;-75
2022/04/15 05:31:30;;;;;;;14.20;7.75;;;10.10;99.90;;;10.54;87.18;101885.78;5229165;28;20076;-75
2022/04/15 05:34:02;;;;;;;13.35;7.55;;;10.30;99.90;;;10.77;86.24;101891.31;5229646;28;20071;-76
2022/04/15 05:36:34;;;;;;;13.98;8.00;;;10.50;99.90;;;10.87;85.31;101891.84;5227633;28;20041;-75
2022/04/15 05:39:06;;;;;;;14.82;8.13;;;10.60;99.90;;;10.95;84.83;101887.00;5227209;28;20059;-75
2022/04/15 05:41:38;;;;;;;16.70;8.55;;;10.70;99.90;;;11.01;84.82;101894.25;5226168;28;20049;-75
2022/04/15 05:44:13;;;;;;;13.75;7.72;;;10.80;99.90;;;11.09;84.50;101906.88;5227306;28;20045;-76
2022/04/15 05:46:45;;;;;;;15.93;8.18;;;10.90;99.90;;;11.31;84.27;101902.72;5228069;28;20091;-76
2022/04/15 05:49:18;;;;;;;15.45;8.25;;;11.00;99.90;;;12.10;83.42;101910.91;5230210;28;20045;-75
2022/04/15 05:51:50;;;;;;;12.57;7.43;;;11.40;99.90;;;12.63;79.93;101913.31;5228036;28;20124;-76
2022/04/15 05:54:22;;;;;;;15.20;8.13;;;11.90;99.90;;;12.81;78.51;101908.00;5227071;28;20051;-75
2022/04/15 05:56:54;;;;;;;19.58;8.65;;;12.20;99.90;;;13.37;78.66;101919.13;5227326;28;20053;-76
2022/04/15 05:59:27;;;;;;;14.25;7.55;;;12.60;99.90;;;14.37;75.84;101915.19;5226705;28;20048;-71
2022/04/15 06:01:59;;;;;;;14.90;7.97;;;13.20;99.90;;;15.38;70.44;101921.38;5225994;28;20067;-71
2022/04/15 06:04:32;;;;;;;14.93;8.82;;;14.00;99.90;;;16.14;65.40;101927.31;5225991;28;20040;-71
2022/04/15 06:07:04;;;;;;;12.15;7.95;;;14.80;99.90;;;16.65;62.54;101927.03;5225331;28;20048;-71
2022/04/15 06:09:36;;;;;;;15.48;8.30;;;15.40;99.90;;;17.15;60.33;101935.44;5226897;28;20045;-70
2022/04/15 06:12:10;;;;;;;14.38;8.30;;;15.90;99.90;;;17.66;58.34;101938.47;5228263;28;20051;-68
2022/04/15 06:14:45;;;;;;;14.38;8.10;;;16.50;98.70;;;18.14;56.42;101940.50;5245133;28;20121;-70
2022/04/15 06:17:21;;;;;;;12.88;8.10;;;16.90;97.00;;;18.45;55.54;101947.31;5247562;28;20041;-70
2022/04/15 06:19:53;;;;;;;13.77;8.27;;;17.40;95.80;;;18.78;54.42;101946.22;5247667;28;20131;-70
2022/04/15 06:22:28;;;;;;;13.13;7.72;;;17.80;94.60;;;19.03;53.50;101943.19;5237366;28;20055;-69
2022/04/15 06:25:00;;;;;;;13.60;7.57;;;18.10;93.20;;;19.23;52.97;101943.53;5226871;28;20045;-73
2022/04/15 06:27:32;;;;;;;14.50;8.15;;;18.30;92.40;;;19.49;52.07;101955.44;5226345;28;20040;-72
2022/04/15 06:30:08;;;;;;;14.95;8.38;;;18.70;91.20;;;19.49;52.02;101950.16;5225905;28;20048;-71
2022/04/15 06:32:40;;;;;;;13.98;8.18;;;18.80;90.60;;;19.51;51.32;101953.75;5225544;28;20049;-71
2022/04/15 06:35:12;;;;;;;14.77;9.20;;;18.90;89.20;;;19.47;51.28;101957.19;5226470;28;20130;-70
2022/04/15 06:37:44;;;;;;;14.32;8.57;;;18.90;88.30;;;19.14;52.28;101962.78;5225959;28;20041;-73
2022/04/15 06:40:16;;;;;;;15.68;8.73;;;18.70;89.00;;;18.95;53.57;101958.91;5225798;28;20045;-72
2022/04/15 06:42:48;;;;;;;16.15;9.13;;;18.40;90.40;;;19.00;54.45;101961.66;5226020;28;20135;-71
2022/04/15 06:45:22;;;;;;;16.75;8.70;;;18.30;91.50;;;19.30;54.38;101966.63;5226013;28;20405;-71
2022/04/15 06:47:53;;;;;;;17.17;8.85;;;18.50;92.00;;;19.49;53.22;101962.50;5226049;28;20128;-73
2022/04/15 06:50:26;;;;;;;14.77;8.70;;;18.60;91.30;;;19.43;52.91;101972.97;5225919;28;20051;-70
2022/04/15 06:52:58;;;;;;;15.30;8.95;;;18.70;90.90;;;19.47;53.33;101972.16;5225968;28;20048;-71
2022/04/15 06:55:30;;;;;;;18.15;8.85;;;18.60;91.00;;;19.74;52.72;101972.66;5225931;28;20397;-71
2022/04/15 06:58:02;;;;;;;17.38;9.00;;;18.80;90.80;;;19.70;51.77;101976.13;5225826;28;20049;-69
2022/04/15 07:00:36;;;;;;;16.00;8.43;;;18.90;89.70;;;19.41;52.46;101983.53;5225760;28;20409;-70
2022/04/15 07:03:12;;;;;;;16.70;9.30;;;18.70;89.80;;;19.13;53.14;101982.16;5225499;28;20057;-71
2022/04/15 07:05:44;;;;;;;14.98;8.48;;;18.50;90.10;;;18.83;53.90;101986.84;5225370;28;20139;-71
2022/04/15 07:08:16;;;;;;;16.88;8.70;;;18.30;90.40;;;18.86;54.33;101989.56;5225526;28;20045;-66
2022/04/15 07:10:48;;;;;;;18.17;8.75;;;18.30;90.90;;;18.93;53.94;101989.72;5225757;28;20591;-66
2022/04/15 07:13:20;;;;;;;16.58;9.50;;;18.30;90.60;;;18.84;53.96;101991.25;5225427;28;20056;-75
2022/04/15 07:15:54;;;;;;;19.58;9.15;;;18.30;90.50;;;18.85;54.56;101993.97;5225210;28;20049;-75
2022/04/15 07:18:26;;;;;;;15.85;8.05;;;18.30;91.10;;;19.05;53.95;101991.69;5225490;28;20063;-75
2022/04/15 07:20:57;;;;;;;16.77;9.55;;;18.40;90.80;;;19.50;54.04;101998.69;5225377;28;20048;-74
2022/04/15 07:23:29;;;;;;;17.85;9.02;;;18.70;91.40;;;20.01;53.10;102005.69;5226417;28;20055;-74
2022/04/15 07:26:01;;;;;;;18.05;9.35;;;19.00;90.90;;;20.35;51.45;101996.50;5229772;28;20574;-73
2022/04/15 07:28:33;;;;;;;18.98;9.40;;;19.40;89.60;;;20.50;51.33;102003.78;5222959;28;20053;-71
2022/04/15 07:31:07;;;;;;;17.70;9.57;;;19.60;88.70;;;20.74;50.21;101993.50;5224903;28;20055;-74
2022/04/15 07:33:39;;;;;;;15.95;9.20;;;19.80;87.10;;;21.04;49.63;101992.06;5228712;28;20409;-75
2022/04/15 07:38:57;;;;;;;15.70;8.68;;;20.30;85.20;;;21.55;48.42;102001.44;5228301;28;20110;-72
2022/04/15 07:41:29;;;;;;;16.58;9.07;;;20.60;82.60;;;21.69;47.86;102005.09;5229062;28;20048;-70
2022/04/15 07:44:01;;;;;;;17.38;9.60;;;20.70;81.70;;;21.78;48.30;102005.19;5229245;28;20045;-72
2022/04/15 07:46:34;;;;;;;19.42;9.45;;;20.80;81.70;;;22.06;48.21;102000.94;5229375;28;20056;-72
2022/04/15 07:49:07;;;;;;;17.23;8.77;;;21.00;82.20;;;22.15;47.80;102005.44;5229228;28;20134;-76
2022/04/15 07:51:39;;;;;;;21.23;10.80;;;21.10;81.40;;;22.07;47.60;102008.03;5229201;28;20089;-76
2022/04/15 07:54:11;;;;;;;19.13;9.90;;;21.10;80.50;;;21.97;47.60;102007.94;5229149;28;20049;-72
2022/04/15 07:56:43;;;;;;;15.80;7.75;;;21.00;80.20;;;22.09;47.80;102010.72;5229310;28;20049;-71
2022/04/15 07:59:15;;;;;;;17.15;9.50;;;21.00;80.50;;;22.71;46.88;102010.19;5229337;28;20053;-71
2022/04/15 08:01:49;;;;;;;17.95;9.63;;;21.30;80.40;;;23.21;45.32;102007.69;5227925;28;20055;-70
2022/04/15 08:04:21;;;;;;;16.63;8.90;;;21.70;78.50;;;23.60;44.87;102013.03;5228941;28;20053;-71
2022/04/15 08:06:53;;;;;;;16.67;8.68;;;21.90;77.40;;;23.88;43.41;102009.53;5226945;28;20063;-70
2022/04/15 08:09:25;;;;;;;19.27;9.48;;;22.20;75.60;;;23.96;42.47;102015.72;5228779;28;20056;-71
2022/04/15 08:11:57;;;;;;;17.90;9.02;;;22.30;73.40;;;23.40;43.07;102013.91;5228409;28;20072;-70
2022/04/15 08:14:29;;;;;;;16.88;8.25;;;22.10;72.70;;;22.56;44.28;102018.97;5228606;28;20405;-71
2022/04/15 08:17:03;;;;;;;18.63;9.65;;;21.60;73.20;;;22.29;45.45;102021.47;5228352;28;20055;-71
2022/04/15 08:19:35;;;;;;;15.63;8.38;;;21.30;74.50;;;22.01;45.98;102017.72;5228142;28;20048;-70
2022/04/15 08:22:09;;;;;;;18.13;9.85;;;21.00;75.10;;;22.15;45.82;102016.06;5228304;28;20052;-70
2022/04/15 08:24:45;;;;;;;16.08;8.35;;;20.90;75.80;;;22.34;45.61;102019.72;5228755;28;20052;-70
2022/04/15 08:27:17;;;;;;;17.90;9.43;;;20.90;76.10;;;22.77;44.48;102028.81;5228486;28;20041;-70
2022/04/15 08:29:49;;;;;;;17.60;9.60;;;21.00;75.70;;;23.90;42.44;102023.72;5228232;28;20049;-70
2022/04/15 08:32:23;;;;;;;16.30;8.05;;;21.40;75.30;;;23.96;41.24;102037.03;5228415;28;20520;-72
2022/04/15 08:34:55;;;;;;;16.52;9.75;;;21.60;72.60;;;23.77;41.05;102032.59;5227241;28;20056;-72
2022/04/15 08:37:27;;;;;;;15.05;7.75;;;21.50;71.90;;;24.51;39.80;102036.94;5228611;28;20051;-73
2022/04/15 08:39:59;;;;;;;14.63;8.05;;;21.80;71.70;;;25.35;38.58;102031.22;5228904;28;20048;-74
2022/04/15 08:42:31;;;;;;;16.88;8.80;;;22.20;70.60;;;26.54;36.00;102039.97;5228490;28;20044;-72
2022/04/15 08:45:07;;;;;;;16.75;10.05;;;22.90;68.30;;;26.51;35.49;102048.03;5228732;28;20052;-73
2022/04/15 08:47:41;;;;;;;16.38;8.90;;;23.20;65.80;;;26.29;36.17;102046.47;5228639;28;20049;-73
2022/04/15 08:50:14;;;;;;;21.38;12.13;;;23.30;65.70;;;26.05;36.11;102040.47;5228279;28;20048;-73
2022/04/15 08:52:46;;;;;;;27.00;14.25;;;23.40;64.90;;;24.31;38.35;102047.63;5229083;28;20541;-71
2022/04/15 08:55:21;;;;;;;30.60;15.25;;;22.70;64.60;;;22.85;41.01;102058.97;5228552;28;20059;-70
2022/04/15 08:57:53;;;;;;;;;;;21.70;66.90;;;23.04;42.25;102059.06;5229028;28;20095;-70
2022/04/15 09:00:26;;;;;;;22.80;10.98;;;21.50;69.60;;;23.33;41.25;102053.81;5228424;28;19920;-70
2022/04/15 09:02:59;;;;;;;28.02;13.52;;;21.50;69.40;;;23.02;41.38;102062.63;5228034;28;20102;-73
2022/04/15 09:05:32;;;;;;;22.10;11.27;;;21.40;68.80;;;22.54;42.28;102065.00;5228266;28;20061;-71
2022/04/15 09:08:06;;;;;;;24.45;11.75;;;21.10;69.20;;;22.44;42.54;102072.03;5228344;28;20049;-71
2022/04/15 09:10:41;;;;;;;23.10;10.82;;;21.00;69.90;;;22.50;42.01;102065.88;5228299;28;20045;-70
2022/04/15 09:13:21;;;;;;;18.92;9.13;;;21.00;69.50;;;22.57;42.23;102078.31;5228086;28;20075;-70
2022/04/15 09:15:53;;;;;;;23.45;11.05;;;21.00;70.00;;;22.02;43.05;102077.91;5228256;28;20510;-72
2022/04/15 09:18:36;;;;;;;25.00;10.02;;;20.90;69.70;;;21.81;44.17;102075.97;5228204;28;20402;-71
2022/04/15 09:21:22;;;;;;;28.85;10.98;;;20.80;71.00;;;21.58;43.96;102081.03;5227847;28;20103;-70
2022/04/15 09:23:55;;;;;;;19.58;9.27;;;20.60;70.40;;;21.18;44.57;102088.53;5228360;28;20485;-71
2022/04/15 09:26:27;;;;;;;17.13;7.65;;;20.50;70.40;;;21.07;45.47;102082.25;5228140;28;20127;-71
2022/04/15 09:29:00;;;;;;;18.23;7.60;;;20.40;71.60;;;21.15;45.23;102091.16;5227939;28;20056;-71
2022/04/15 09:31:32;;;;;;;16.23;7.78;;;20.40;71.10;;;21.19;45.04;102092.06;5227924;28;20520;-71
2022/04/15 09:34:08;;;;;;;14.90;7.20;;;20.40;70.80;;;21.10;45.28;102087.56;5227808;28;20049;-70
2022/04/15 09:36:41;;;;;;;17.23;7.55;;;20.40;70.90;;;20.80;45.21;102086.34;5227556;28;20052;-71
2022/04/15 09:39:15;;;;;;;17.92;7.75;;;20.30;70.50;;;20.42;46.07;102087.53;5227896;28;20045;-71
2022/04/15 09:41:52;;;;;;;15.50;7.05;;;20.00;71.10;;;20.02;46.85;102084.25;5227683;28;20056;-68
2022/04/15 09:44:31;;;;;;;13.20;6.15;;;19.80;71.70;;;19.93;47.21;102092.03;5227838;28;20080;-71
2022/04/15 09:47:06;;;;;;;12.25;6.03;;;19.60;72.20;;;19.94;47.18;102086.75;5227102;28;20146;-70
2022/04/15 09:49:45;;;;;;;15.88;7.97;;;19.60;72.20;;;20.02;47.12;102084.25;5227791;28;20049;-70
2022/04/15 09:52:25;;;;;;;16.63;8.15;;;19.60;72.60;;;19.86;47.10;102082.19;5227525;28;20072;-71
2022/04/15 09:54:58;;;;;;;10.68;5.15;;;19.50;72.10;;;19.82;47.82;102086.53;5227239;28;20053;-71
2022/04/15 09:57:34;;;;;;;15.82;6.93;;;19.50;73.30;;;19.95;48.01;102082.34;5224706;28;20059;-74
2022/04/15 10:00:11;;;;;;;20.92;9.27;;;19.50;73.90;;;19.90;47.56;102089.34;5227399;28;20045;-71
2022/04/15 10:02:44;;;;;;;19.83;9.70;;;19.50;73.10;;;19.68;47.79;102083.66;5226652;28;20102;-71
2022/04/15 10:05:20;;;;;;;22.50;11.75;;;19.40;73.00;;;19.64;48.39;102089.78;5318791;23;20547;-84
2022/04/15 10:07:53;;;;;;;21.15;10.50;;;19.30;74.10;;;19.65;48.04;102088.03;5246401;28;20109;-85
2022/04/15 10:10:26;;;;;;;19.65;10.10;;;19.30;73.70;;;19.85;47.92;102089.25;5244471;28;20053;-85
2022/04/15 10:13:01;;;;;;;21.10;10.35;;;19.40;74.20;;;20.03;47.67;102070.16;5233199;28;20075;-85
2022/04/15 10:15:36;;;;;;;18.05;8.82;;;19.50;74.10;;;20.45;46.39;102082.28;5234161;28;20117;-85
2022/04/15 10:18:10;;;;;;;21.10;11.00;;;19.80;73.20;;;20.59;45.09;102083.38;5221119;23;20104;-72
2022/04/15 10:20:44;;;;;;;19.00;9.45;;;19.90;71.30;;;20.55;46.01;102082.44;5197882;28;20075;-72
2022/04/15 10:23:17;;;;;;;18.77;9.32;;;19.90;72.10;;;20.64;45.39;102084.34;5203751;28;20045;-70
2022/04/15 10:25:52;;;;;;;15.85;8.38;;;20.00;71.50;;;20.76;45.19;102076.56;5220603;28;20041;-72
2022/04/15 10:28:42;;;;;;;19.30;8.85;;;20.10;71.30;;;20.94;44.59;102082.97;5205566;28;20056;-70
2022/04/15 10:31:16;;;;;;;18.27;8.35;;;20.20;70.50;;;20.94;44.91;102088.28;5205946;28;20057;-70
2022/04/15 10:33:49;;;;;;;17.67;7.28;;;20.30;70.80;;;20.89;44.98;102082.00;5201069;28;20049;-69